createdAt,value
2024-02-01T00:03:58.926Z,103167.66
2024-02-01T00:09:03.211Z,103180.03
2024-02-01T00:14:16.573Z,103176.25
2024-02-01T00:19:27.658Z,103171.63
2024-02-01T00:24:35.279Z,103166.59
2024-02-01T00:29:43.528Z,103165.13
2024-02-01T00:35:07.331Z,103154.22
2024-02-01T00:40:23.795Z,103163.25
2024-02-01T00:45:33.426Z,103147.31
2024-02-01T00:50:37.209Z,103143.94
2024-02-01T00:55:52.288Z,103148.56
2024-02-01T01:01:06.055Z,103140.16
2024-02-01T01:06:13.695Z,103144.78
2024-02-01T01:11:19.479Z,103146.88
2024-02-01T01:16:32.120Z,103146.03
2024-02-01T01:21:37.541Z,103135.72
2024-02-01T01:26:45.783Z,103132.16
2024-02-01T01:31:52.413Z,103127.97
2024-02-01T01:42:32.449Z,103124.59
2024-02-01T01:53:00.519Z,103121.25
2024-02-01T01:58:07.344Z,103119.78
2024-02-01T02:05:32.014Z,103120.00
2024-02-01T02:10:43.156Z,103120.66
2024-02-01T02:15:50.629Z,103115.84
2024-02-01T02:20:57.990Z,103122.13
2024-02-01T02:26:16.023Z,103109.09
2024-02-01T02:31:55.876Z,103109.50
2024-02-01T02:37:02.335Z,103117.47
2024-02-01T02:42:09.121Z,103099.22
2024-02-01T02:47:18.560Z,103102.59
2024-02-01T02:52:26.574Z,103085.59
2024-02-01T02:57:30.017Z,103084.34
2024-02-01T03:02:38.791Z,103081.41
2024-02-01T03:07:46.182Z,103076.38
2024-02-01T03:12:51.844Z,103078.44
2024-02-01T03:18:00.142Z,103077.81
2024-02-01T03:23:06.748Z,103073.00
2024-02-01T03:28:18.058Z,103067.97
2024-02-01T03:33:25.840Z,103076.34
2024-02-01T03:38:44.963Z,103074.03
2024-02-01T03:43:54.152Z,103067.94
2024-02-01T03:54:17.009Z,103059.56
2024-02-01T03:59:20.776Z,103055.34
2024-02-01T04:04:31.617Z,103047.59
2024-02-01T04:09:37.814Z,103045.72
2024-02-01T04:14:45.257Z,103056.81
2024-02-01T04:19:52.957Z,103054.50
2024-02-01T04:25:31.698Z,103058.06
2024-02-01T04:30:41.900Z,103060.78
2024-02-01T04:35:52.900Z,103061.63
2024-02-01T04:40:55.407Z,103057.44
2024-02-01T04:46:04.640Z,103060.16
2024-02-01T04:51:14.131Z,103057.84
2024-02-01T04:56:21.223Z,103059.53
2024-02-01T05:02:25.619Z,103057.44
2024-02-01T05:07:27.941Z,103067.69
2024-02-01T05:12:30.654Z,103077.94
2024-02-01T05:37:20.849Z,103100.59
2024-02-01T05:42:23.091Z,103093.06
2024-02-01T05:47:26.851Z,103106.91
2024-02-01T05:52:30.134Z,103090.16
2024-02-01T05:57:33.965Z,103094.56
2024-02-01T06:02:36.131Z,103095.59
2024-02-01T06:07:38.512Z,103098.72
2024-02-01T06:12:42.932Z,103103.53
2024-02-01T06:17:45.084Z,103107.72
2024-02-01T06:22:51.911Z,103102.47
2024-02-01T06:27:57.003Z,103103.50
2024-02-01T06:32:59.313Z,103114.38
2024-02-01T06:38:16.935Z,103116.63
2024-02-01T06:43:28.141Z,103114.50
2024-02-01T06:48:45.460Z,103126.22
2024-02-01T06:54:08.441Z,103114.25
2024-02-01T06:59:32.903Z,103122.59
2024-02-01T07:04:55.323Z,103135.63
2024-02-01T07:10:09.987Z,103155.72
2024-02-01T07:15:28.371Z,103161.16
2024-02-01T07:20:37.836Z,103165.38
2024-02-01T07:25:49.959Z,103171.34
2024-02-01T07:31:10.696Z,103177.06
2024-02-01T07:36:31.303Z,103195.09
2024-02-01T07:41:56.845Z,103196.19
2024-02-01T07:47:19.055Z,103190.16
2024-02-01T07:52:42.761Z,103190.81
2024-02-01T07:58:03.417Z,103203.81
2024-02-01T08:03:13.595Z,103193.97
2024-02-01T08:08:19.795Z,103200.91
2024-02-01T08:13:21.913Z,103216.91
2024-02-01T08:18:27.377Z,103223.94
2024-02-01T08:23:31.727Z,103219.13
2024-02-01T08:28:34.102Z,103218.84
2024-02-01T08:33:37.733Z,103222.41
2024-02-01T08:38:42.133Z,103211.06
2024-02-01T08:43:49.156Z,103211.63
2024-02-01T08:48:51.514Z,103217.06
2024-02-01T08:53:56.642Z,103218.00
2024-02-01T08:58:59.008Z,103214.66
2024-02-01T09:04:01.278Z,103207.22
2024-02-01T09:09:06.186Z,103219.69
2024-02-01T09:14:12.613Z,103224.78
2024-02-01T09:19:20.478Z,103228.84
2024-02-01T09:24:22.760Z,103231.69
2024-02-01T09:29:27.711Z,103236.97
2024-02-01T09:34:30.053Z,103242.28
2024-02-01T09:39:35.748Z,103246.19
2024-02-01T09:44:38.009Z,103248.75
2024-02-01T09:49:43.625Z,103257.03
2024-02-01T09:54:47.870Z,103253.78
2024-02-01T09:59:56.121Z,103256.97
2024-02-01T10:04:58.974Z,103252.28
2024-02-01T10:10:02.887Z,103260.19
2024-02-01T10:15:12.277Z,103255.81
2024-02-01T10:20:38.512Z,103255.81
2024-02-01T10:25:43.283Z,103248.75
2024-02-01T10:30:47.265Z,103251.03
2024-02-01T10:35:51.662Z,103243.94
2024-02-01T10:41:19.364Z,103233.78
2024-02-01T10:46:38.063Z,103220.66
2024-02-01T10:51:40.449Z,103216.63
2024-02-01T10:56:43.851Z,103208.16
2024-02-01T11:01:47.067Z,103211.84
2024-02-01T11:06:50.812Z,103204.13
2024-02-01T11:12:01.535Z,103182.28
2024-02-01T11:17:04.388Z,103184.81
2024-02-01T11:22:08.207Z,103175.75
2024-02-01T11:27:28.879Z,103169.69
2024-02-01T11:32:33.672Z,103151.16
2024-02-01T11:37:36.355Z,103147.84
2024-02-01T11:42:39.961Z,103137.88
2024-02-01T11:47:46.269Z,103121.81
2024-02-01T11:53:01.365Z,103107.41
2024-02-01T11:58:13.477Z,103112.94
2024-02-01T12:03:15.954Z,103104.88
2024-02-01T12:08:18.564Z,103096.81
2024-02-01T12:13:20.902Z,103094.88
2024-02-01T12:18:24.487Z,103084.63
2024-02-01T12:23:27.002Z,103075.19
2024-02-01T12:28:39.125Z,103076.13
2024-02-01T12:33:41.661Z,103075.44
2024-02-01T12:38:49.699Z,103068.22
2024-02-01T12:43:53.161Z,103055.53
2024-02-01T12:49:00.699Z,103036.22
2024-02-01T12:54:03.975Z,103032.13
2024-02-01T12:59:10.132Z,103008.94
2024-02-01T13:04:12.427Z,103011.63
2024-02-01T13:09:29.669Z,102995.00
2024-02-01T13:14:35.317Z,102989.22
2024-02-01T13:19:45.250Z,102976.94
2024-02-01T13:24:47.933Z,102978.50
2024-02-01T13:29:51.267Z,102987.66
2024-02-01T13:34:54.016Z,102987.13
2024-02-01T13:39:56.370Z,102960.53
2024-02-01T13:44:58.695Z,102953.84
2024-02-01T13:50:01.208Z,102939.34
2024-02-01T13:55:03.527Z,102927.56
2024-02-01T14:00:17.996Z,102926.25
2024-02-01T14:05:22.892Z,102907.09
2024-02-01T14:10:25.602Z,102918.75
2024-02-01T14:15:28.872Z,102917.38
2024-02-01T14:20:31.166Z,102929.91
2024-02-01T14:25:35.579Z,102933.31
2024-02-01T14:30:44.244Z,102929.56
2024-02-01T14:35:51.500Z,102915.19
2024-02-01T14:40:55.273Z,102919.34
2024-02-01T14:46:00.245Z,102909.84
2024-02-01T14:51:05.336Z,102907.19
2024-02-01T14:56:07.889Z,102905.59
2024-02-01T15:01:13.296Z,102906.97
2024-02-01T15:06:18.494Z,102895.97
2024-02-01T15:11:53.160Z,102898.72
2024-02-01T15:16:58.661Z,102900.75
2024-02-01T15:22:04.643Z,102894.44
2024-02-01T15:27:11.957Z,102902.63
2024-02-01T15:32:17.765Z,102911.88
2024-02-01T15:37:21.314Z,102920.81
2024-02-01T15:42:23.700Z,102905.00
2024-02-01T15:47:37.501Z,102913.50
2024-02-01T15:52:45.407Z,102913.03
2024-02-01T15:57:48.530Z,102903.06
2024-02-01T16:02:51.243Z,102897.56
2024-02-01T16:07:59.902Z,102897.28
2024-02-01T16:13:04.864Z,102892.69
2024-02-01T16:18:16.494Z,102886.53
2024-02-01T16:23:26.305Z,102889.69
2024-02-01T16:28:29.156Z,102883.50
2024-02-01T16:33:39.026Z,102888.31
2024-02-01T16:38:45.554Z,102896.97
2024-02-01T16:43:47.889Z,102890.44
2024-02-01T16:48:50.226Z,102885.69
2024-02-01T16:53:53.604Z,102886.06
2024-02-01T16:58:56.905Z,102891.72
2024-02-01T17:04:00.728Z,102893.50
2024-02-01T17:09:05.847Z,102891.09
2024-02-01T17:14:17.240Z,102882.16
2024-02-01T17:19:19.924Z,102883.38
2024-02-01T17:24:25.086Z,102889.00
2024-02-01T17:29:27.913Z,102884.97
2024-02-01T17:40:23.083Z,102890.47
2024-02-01T17:45:41.921Z,102880.00
2024-02-01T17:50:45.077Z,102881.78
2024-02-01T17:55:51.232Z,102890.50
2024-02-01T18:00:54.286Z,102886.31
2024-02-01T18:05:56.600Z,102896.34
2024-02-01T18:10:59.235Z,102901.22
2024-02-01T18:16:11.679Z,102894.56
2024-02-01T18:21:20.702Z,102894.44
2024-02-01T18:26:32.679Z,102904.22
2024-02-01T18:31:36.542Z,102895.59
2024-02-01T18:36:40.361Z,102901.91
2024-02-01T18:41:43.310Z,102912.28
2024-02-01T18:46:52.433Z,102925.16
2024-02-01T18:51:59.822Z,102912.75
2024-02-01T18:57:03.779Z,102906.66
2024-02-01T19:02:35.451Z,102901.19
2024-02-01T19:07:45.558Z,102894.88
2024-02-01T19:12:48.877Z,102882.84
2024-02-01T19:17:51.348Z,102893.19
2024-02-01T19:22:57.172Z,102898.31
2024-02-01T19:28:03.869Z,102900.00
2024-02-01T19:33:07.328Z,102905.94
2024-02-01T19:38:18.197Z,102902.63
2024-02-01T19:43:20.657Z,102899.63
2024-02-01T19:48:23.979Z,102895.00
2024-02-01T19:53:26.753Z,102900.00
2024-02-01T19:58:28.941Z,102903.22
2024-02-01T20:03:32.126Z,102904.75
2024-02-01T20:08:35.664Z,102903.56
2024-02-01T20:13:39.548Z,102885.91
2024-02-01T20:18:42.024Z,102890.16
2024-02-01T20:23:47.070Z,102888.97
2024-02-01T20:28:58.330Z,102890.50
2024-02-01T20:34:03.447Z,102892.28
2024-02-01T20:39:27.546Z,102898.72
2024-02-01T20:44:34.482Z,102900.59
2024-02-01T20:49:46.820Z,102895.38
2024-02-01T20:55:08.836Z,102896.19
2024-02-01T21:00:26.003Z,102886.69
2024-02-01T21:05:45.880Z,102892.38
2024-02-01T21:10:53.537Z,102888.81
2024-02-01T21:15:55.742Z,102890.97
2024-02-01T21:21:06.130Z,102899.41
2024-02-01T21:26:26.029Z,102886.78
2024-02-01T21:31:48.753Z,102896.06
2024-02-01T21:37:03.851Z,102902.00
2024-02-01T21:42:06.765Z,102898.66
2024-02-01T21:47:18.233Z,102897.47
2024-02-01T21:52:25.648Z,102885.06
2024-02-01T21:57:28.477Z,102890.19
2024-02-01T22:02:30.849Z,102898.03
2024-02-01T22:07:33.631Z,102899.34
2024-02-01T22:12:42.587Z,102896.47
2024-02-01T22:17:45.262Z,102890.22
2024-02-01T22:22:51.010Z,102884.38
2024-02-01T22:27:53.145Z,102881.72
2024-02-01T22:32:58.096Z,102890.38
2024-02-01T22:38:01.329Z,102902.78
2024-02-01T22:43:03.888Z,102889.94
2024-02-01T22:48:06.765Z,102897.06
2024-02-01T22:53:08.967Z,102895.16
2024-02-01T22:58:11.122Z,102904.81
2024-02-01T23:03:20.214Z,102897.81
2024-02-01T23:08:23.152Z,102889.00
2024-02-01T23:13:29.805Z,102888.03
2024-02-01T23:18:35.539Z,102894.19
2024-02-01T23:23:41.772Z,102892.16
2024-02-01T23:28:56.570Z,102898.91
2024-02-01T23:39:39.612Z,102907.53
2024-02-01T23:44:50.156Z,102898.34
2024-02-01T23:49:53.403Z,102894.59
2024-02-01T23:55:00.313Z,102893.41
